createdAt,value
2022-12-19T00:00:46.212Z,-5.91
2022-12-19T00:03:27.812Z,-5.93
2022-12-19T00:05:57.004Z,-5.95
2022-12-19T00:08:27.853Z,-5.92
2022-12-19T00:11:01.387Z,-5.99
2022-12-19T00:13:40.319Z,-6.03
2022-12-19T00:16:13.273Z,-6.03
2022-12-19T00:18:43.643Z,-5.99
2022-12-19T00:21:14.251Z,-6.07
2022-12-19T00:23:45.861Z,-6.08
2022-12-19T00:26:17.798Z,-6.07
2022-12-19T00:28:51.366Z,-6.14
2022-12-19T00:31:22.261Z,-6.19
2022-12-19T00:33:51.986Z,-6.12
2022-12-19T00:36:23.692Z,-6.15
2022-12-19T00:38:56.317Z,-6.12
2022-12-19T00:41:27.347Z,-6.21
2022-12-19T00:44:00.194Z,-6.37
2022-12-19T00:46:30.947Z,-6.40
2022-12-19T00:49:01.244Z,-6.33
2022-12-19T00:51:34.875Z,-6.27
2022-12-19T00:54:07.361Z,-6.21
2022-12-19T00:56:38.447Z,-6.28
2022-12-19T00:59:11.373Z,-6.24
2022-12-19T01:01:42.874Z,-6.27
2022-12-19T01:04:35.535Z,-6.27
2022-12-19T01:07:07.648Z,-6.25
2022-12-19T01:09:38.939Z,-6.28
2022-12-19T01:12:26.305Z,-6.25
2022-12-19T01:15:04.528Z,-6.30
2022-12-19T01:17:43.702Z,-6.35
2022-12-19T01:20:15.144Z,-6.33
2022-12-19T01:22:44.340Z,-6.40
2022-12-19T01:25:17.197Z,-6.46
2022-12-19T01:27:46.262Z,-6.46
2022-12-19T01:30:15.946Z,-6.48
2022-12-19T01:32:46.007Z,-6.55
2022-12-19T01:35:21.402Z,-6.51
2022-12-19T01:37:51.717Z,-6.47
2022-12-19T01:40:23.329Z,-6.53
2022-12-19T01:42:52.571Z,-6.67
2022-12-19T01:45:34.949Z,-6.50
2022-12-19T01:48:20.038Z,-6.48
2022-12-19T01:51:00.814Z,-6.48
2022-12-19T01:53:48.830Z,-6.46
2022-12-19T01:56:27.131Z,-6.59
2022-12-19T01:59:06.483Z,-6.58
2022-12-19T02:01:51.011Z,-6.59
2022-12-19T02:04:26.356Z,-6.56
2022-12-19T02:07:15.222Z,-6.52
2022-12-19T02:09:49.634Z,-6.54
2022-12-19T02:12:33.814Z,-6.59
2022-12-19T02:15:04.728Z,-6.54
2022-12-19T02:17:44.088Z,-6.57
2022-12-19T02:20:50.813Z,-6.61
2022-12-19T02:23:39.866Z,-6.61
2022-12-19T02:26:31.092Z,-6.60
2022-12-19T02:29:28.741Z,-6.51
2022-12-19T02:32:05.891Z,-6.50
2022-12-19T02:34:44.233Z,-6.53
2022-12-19T02:37:20.866Z,-6.63
2022-12-19T02:39:57.341Z,-6.73
2022-12-19T02:42:31.854Z,-6.73
2022-12-19T02:45:06.869Z,-6.71
2022-12-19T02:47:38.624Z,-6.71
2022-12-19T02:50:09.887Z,-6.70
2022-12-19T02:52:49.942Z,-6.78
2022-12-19T02:55:21.470Z,-6.78
2022-12-19T02:58:17.436Z,-6.81
2022-12-19T03:00:56.816Z,-6.76
2022-12-19T03:03:35.400Z,-6.79
2022-12-19T03:06:12.481Z,-6.80
2022-12-19T03:08:48.408Z,-6.79
2022-12-19T03:11:18.240Z,-6.93
2022-12-19T03:13:54.866Z,-6.93
2022-12-19T03:16:25.264Z,-6.96
2022-12-19T03:18:56.220Z,-6.95
2022-12-19T03:21:33.292Z,-7.01
2022-12-19T03:24:03.519Z,-6.92
2022-12-19T03:26:37.626Z,-6.97
2022-12-19T03:29:12.465Z,-6.93
2022-12-19T03:31:43.497Z,-6.92
2022-12-19T03:34:21.944Z,-6.97
2022-12-19T03:36:55.751Z,-6.90
2022-12-19T03:39:30.463Z,-6.88
2022-12-19T03:42:20.548Z,-6.81
2022-12-19T03:44:52.294Z,-6.77
2022-12-19T03:47:29.065Z,-6.82
2022-12-19T03:49:59.625Z,-6.83
2022-12-19T03:52:35.227Z,-6.83
2022-12-19T03:55:09.858Z,-6.79
2022-12-19T03:57:43.131Z,-6.80
2022-12-19T04:00:15.857Z,-6.78
2022-12-19T04:02:48.886Z,-6.80
2022-12-19T04:05:21.959Z,-6.75
2022-12-19T04:07:54.073Z,-6.98
2022-12-19T04:10:26.150Z,-6.79
2022-12-19T04:13:00.832Z,-6.78
2022-12-19T04:15:36.354Z,-6.83
2022-12-19T04:18:09.242Z,-6.86
2022-12-19T04:20:42.143Z,-6.84
2022-12-19T04:23:19.001Z,-6.83
2022-12-19T04:25:53.912Z,-6.86
2022-12-19T04:28:31.472Z,-6.89
2022-12-19T04:31:01.841Z,-6.94
2022-12-19T04:33:31.487Z,-7.00
2022-12-19T04:36:02.030Z,-7.03
2022-12-19T04:38:31.493Z,-6.91
2022-12-19T04:41:00.589Z,-6.90
2022-12-19T04:43:30.222Z,-6.98
2022-12-19T04:45:59.230Z,-6.88
2022-12-19T04:48:28.798Z,-6.87
2022-12-19T04:50:59.980Z,-6.77
2022-12-19T04:53:29.400Z,-6.64
2022-12-19T04:56:03.130Z,-6.59
2022-12-19T04:58:32.759Z,-6.77
2022-12-19T05:01:03.189Z,-6.73
2022-12-19T05:03:33.139Z,-6.75
2022-12-19T05:06:08.243Z,-6.70
2022-12-19T05:08:39.229Z,-6.63
2022-12-19T05:11:12.294Z,-6.61
2022-12-19T05:13:44.417Z,-6.63
2022-12-19T05:16:15.981Z,-6.66
2022-12-19T05:18:47.004Z,-6.81
2022-12-19T05:21:17.657Z,-6.80
2022-12-19T05:23:47.069Z,-6.90
2022-12-19T05:26:16.516Z,-7.03
2022-12-19T05:28:45.986Z,-7.05
2022-12-19T05:31:17.333Z,-6.90
2022-12-19T05:33:47.325Z,-6.91
2022-12-19T05:36:18.601Z,-6.94
2022-12-19T05:38:48.356Z,-7.00
2022-12-19T05:41:19.204Z,-7.00
2022-12-19T05:43:53.002Z,-6.86
2022-12-19T05:46:23.298Z,-6.98
2022-12-19T05:48:52.763Z,-7.00
2022-12-19T05:51:23.284Z,-6.94
2022-12-19T05:53:52.700Z,-6.97
2022-12-19T05:56:23.651Z,-7.03
2022-12-19T05:58:53.889Z,-7.07
2022-12-19T06:01:25.719Z,-6.94
2022-12-19T06:03:56.500Z,-6.97
2022-12-19T06:06:27.737Z,-7.01
2022-12-19T06:08:58.255Z,-7.00
2022-12-19T06:11:28.271Z,-6.94
2022-12-19T06:13:57.699Z,-6.88
2022-12-19T06:16:26.736Z,-6.90
2022-12-19T06:18:56.374Z,-6.89
2022-12-19T06:21:27.101Z,-6.92
2022-12-19T06:23:57.922Z,-7.01
2022-12-19T06:26:27.353Z,-6.96
2022-12-19T06:28:57.337Z,-6.92
2022-12-19T06:31:27.102Z,-6.92
2022-12-19T06:33:57.087Z,-6.94
2022-12-19T06:36:29.340Z,-6.97
2022-12-19T06:38:59.939Z,-6.97
2022-12-19T06:41:46.565Z,-7.00
2022-12-19T06:44:18.588Z,-6.98
2022-12-19T06:46:47.702Z,-6.96
2022-12-19T06:49:17.061Z,-6.93
2022-12-19T06:51:47.895Z,-6.89
2022-12-19T06:54:17.365Z,-6.90
2022-12-19T06:56:46.650Z,-6.90
2022-12-19T06:59:17.575Z,-6.94
2022-12-19T07:01:57.409Z,-6.90
2022-12-19T07:04:32.239Z,-6.88
2022-12-19T07:07:02.750Z,-6.88
2022-12-19T07:09:35.633Z,-6.96
2022-12-19T07:12:04.895Z,-6.89
2022-12-19T07:14:34.402Z,-6.83
2022-12-19T07:17:05.174Z,-6.80
2022-12-19T07:19:36.418Z,-6.87
2022-12-19T07:22:07.757Z,-6.74
2022-12-19T07:24:38.155Z,-6.74
2022-12-19T07:27:08.128Z,-6.76
2022-12-19T07:29:37.316Z,-6.86
2022-12-19T07:32:06.548Z,-6.84
2022-12-19T07:34:36.020Z,-6.78
2022-12-19T07:37:07.027Z,-6.75
2022-12-19T07:39:36.472Z,-6.70
2022-12-19T07:42:05.577Z,-6.77
2022-12-19T07:44:41.168Z,-6.80
2022-12-19T07:47:10.662Z,-6.80
2022-12-19T07:49:40.079Z,-6.81
2022-12-19T07:52:10.939Z,-6.81
2022-12-19T07:54:41.038Z,-6.81
2022-12-19T07:57:10.124Z,-6.84
2022-12-19T07:59:39.635Z,-6.89
2022-12-19T08:02:08.932Z,-6.75
2022-12-19T08:04:38.404Z,-6.71
2022-12-19T08:07:07.578Z,-6.66
2022-12-19T08:09:38.438Z,-6.79
2022-12-19T08:12:08.001Z,-6.74
2022-12-19T08:14:37.355Z,-6.70
2022-12-19T08:17:22.745Z,-6.71
2022-12-19T08:19:53.171Z,-6.71
2022-12-19T08:22:23.075Z,-6.66
2022-12-19T08:24:53.917Z,-6.62
2022-12-19T08:27:22.996Z,-6.57
2022-12-19T08:29:52.901Z,-6.52
2022-12-19T08:32:22.279Z,-6.58
2022-12-19T08:34:52.058Z,-6.50
2022-12-19T08:37:21.763Z,-6.51
2022-12-19T08:39:52.527Z,-6.50
2022-12-19T08:42:21.881Z,-6.51
2022-12-19T08:44:51.386Z,-6.40
2022-12-19T08:47:20.527Z,-6.36
2022-12-19T08:49:49.901Z,-6.26
2022-12-19T08:52:19.711Z,-6.28
2022-12-19T08:54:49.374Z,-6.26
2022-12-19T08:57:19.935Z,-6.20
2022-12-19T08:59:49.452Z,-6.19
2022-12-19T09:02:20.005Z,-6.10
2022-12-19T09:06:00.905Z,-6.07
2022-12-19T09:07:39.777Z,-5.98
2022-12-19T09:10:09.891Z,-5.86
2022-12-19T09:12:40.403Z,-5.78
2022-12-19T09:15:10.555Z,-5.74
2022-12-19T09:17:39.663Z,-5.67
2022-12-19T09:20:10.712Z,-5.65
2022-12-19T09:22:40.045Z,-5.58
2022-12-19T09:25:10.970Z,-5.48
2022-12-19T09:28:09.402Z,-5.47
2022-12-19T09:30:31.226Z,-5.41
2022-12-19T09:33:01.206Z,-5.36
2022-12-19T09:35:30.829Z,-5.36
2022-12-19T09:38:00.666Z,-5.31
2022-12-19T09:40:34.323Z,-5.26
2022-12-19T09:43:18.273Z,-5.19
2022-12-19T09:45:59.921Z,-5.15
2022-12-19T09:48:29.355Z,-5.12
2022-12-19T09:51:09.570Z,-5.11
2022-12-19T09:53:54.743Z,-5.07
2022-12-19T09:56:45.923Z,-4.92
2022-12-19T09:59:39.805Z,-4.88
2022-12-19T10:02:28.333Z,-4.82
2022-12-19T10:05:22.487Z,-4.74
2022-12-19T10:08:08.943Z,-4.68
2022-12-19T10:12:37.496Z,-4.62
2022-12-19T10:14:13.432Z,-4.54
2022-12-19T10:17:22.709Z,-4.45
2022-12-19T10:19:54.905Z,-4.42
2022-12-19T10:22:34.191Z,-4.47
2022-12-19T10:25:24.603Z,-4.36
2022-12-19T10:28:02.744Z,-4.25
2022-12-19T10:30:37.119Z,-4.20
2022-12-19T10:33:21.005Z,-4.20
2022-12-19T10:35:56.109Z,-4.12
2022-12-19T10:38:33.210Z,-4.25
2022-12-19T10:41:16.236Z,-4.27
2022-12-19T10:43:57.979Z,-4.23
2022-12-19T10:46:41.150Z,-4.24
2022-12-19T10:49:17.886Z,-4.23
2022-12-19T10:51:59.462Z,-4.18
2022-12-19T10:54:38.516Z,-4.14
2022-12-19T10:57:25.402Z,-4.14
2022-12-19T11:00:09.653Z,-4.11
2022-12-19T11:02:44.429Z,-4.02
2022-12-19T11:05:26.770Z,-3.96
2022-12-19T11:08:05.189Z,-3.94
2022-12-19T11:13:17.263Z,-3.86
2022-12-19T11:19:55.153Z,-3.72
2022-12-19T11:20:47.313Z,-3.71
2022-12-19T11:29:18.727Z,-3.72
2022-12-19T11:29:30.012Z,-3.81
2022-12-19T11:29:54.947Z,-3.72
2022-12-19T11:30:45.893Z,-3.69
2022-12-19T11:32:31.866Z,-3.73
2022-12-19T11:34:07.108Z,-3.64
2022-12-19T11:36:42.784Z,-3.65
2022-12-19T11:39:20.247Z,-3.60
2022-12-19T11:42:01.839Z,-3.62
2022-12-19T11:44:37.430Z,-3.60
2022-12-19T11:47:20.690Z,-3.48
2022-12-19T11:49:57.359Z,-3.53
2022-12-19T11:55:40.725Z,-3.48
2022-12-19T11:58:12.438Z,-3.61
2022-12-19T12:00:52.357Z,-3.54
2022-12-19T12:03:42.323Z,-3.55
2022-12-19T12:06:35.199Z,-3.44
2022-12-19T12:12:32.512Z,-3.37
2022-12-19T12:18:53.021Z,-3.42
2022-12-19T12:25:18.708Z,-3.42
2022-12-19T12:31:00.411Z,-3.48
2022-12-19T12:31:39.253Z,-3.51
2022-12-19T12:31:45.831Z,-3.47
2022-12-19T12:31:57.034Z,-3.46
2022-12-19T12:32:03.193Z,-3.50
2022-12-19T12:35:32.682Z,-3.44
2022-12-19T12:39:41.302Z,-3.45
2022-12-19T12:42:23.396Z,-3.45
2022-12-19T12:44:56.639Z,-3.44
2022-12-19T12:47:27.657Z,-3.47
2022-12-19T12:50:02.020Z,-3.45
2022-12-19T12:52:36.269Z,-3.48
2022-12-19T12:55:13.707Z,-3.49
2022-12-19T12:57:43.321Z,-3.41
2022-12-19T13:00:22.066Z,-3.33
2022-12-19T13:03:03.876Z,-3.25
2022-12-19T13:05:55.413Z,-3.28
2022-12-19T13:08:35.626Z,-3.30
2022-12-19T13:11:07.871Z,-3.27
2022-12-19T13:13:55.042Z,-3.37
2022-12-19T13:16:53.216Z,-3.27
2022-12-19T13:19:28.754Z,-3.13
2022-12-19T13:22:23.762Z,-3.17
2022-12-19T13:24:54.616Z,-3.11
2022-12-19T13:27:42.837Z,-3.17
2022-12-19T13:30:20.533Z,-3.20
2022-12-19T13:33:10.606Z,-3.12
2022-12-19T13:39:15.645Z,-3.09
2022-12-19T13:39:58.100Z,-3.08
2022-12-19T13:41:49.262Z,-3.01
2022-12-19T13:44:22.869Z,-3.04
2022-12-19T13:46:53.212Z,-3.01
2022-12-19T13:49:33.832Z,-2.96
2022-12-19T13:52:05.516Z,-2.92
2022-12-19T13:54:47.089Z,-2.91
2022-12-19T13:57:24.483Z,-2.90
2022-12-19T15:18:25.873Z,-2.44
2022-12-19T15:20:59.115Z,-2.60
2022-12-19T15:23:29.052Z,-2.62
2022-12-19T15:26:03.811Z,-2.72
2022-12-19T15:28:39.677Z,-2.82
2022-12-19T15:31:18.330Z,-2.74
2022-12-19T15:34:14.903Z,-2.76
2022-12-19T15:36:39.370Z,-2.75
2022-12-19T15:39:08.430Z,-2.77
2022-12-19T15:41:38.002Z,-2.77
2022-12-19T15:44:10.860Z,-2.71
2022-12-19T15:46:48.087Z,-2.62
2022-12-19T15:49:20.465Z,-2.64
2022-12-19T15:51:50.859Z,-2.62
2022-12-19T15:57:19.687Z,-2.60
2022-12-19T15:59:49.236Z,-2.67
2022-12-19T16:02:22.710Z,-2.62
2022-12-19T16:05:01.692Z,-2.65
2022-12-19T16:07:33.648Z,-2.58
2022-12-19T16:10:02.725Z,-2.54
2022-12-19T16:12:37.580Z,-2.58
2022-12-19T16:15:08.067Z,-2.52
2022-12-19T16:17:38.977Z,-2.55
2022-12-19T16:20:17.819Z,-2.55
2022-12-19T16:22:47.581Z,-2.52
2022-12-19T16:25:17.049Z,-2.47
2022-12-19T16:27:55.848Z,-2.48
2022-12-19T16:30:29.200Z,-2.49
2022-12-19T16:32:59.149Z,-2.46
2022-12-19T16:38:21.547Z,-2.48
2022-12-19T16:40:52.570Z,-2.51
2022-12-19T16:43:29.395Z,-2.45
2022-12-19T16:46:01.831Z,-2.43
2022-12-19T16:48:31.849Z,-2.33
2022-12-19T16:51:02.858Z,-2.30
2022-12-19T16:53:32.382Z,-2.31
2022-12-19T16:56:02.142Z,-2.37
2022-12-19T16:58:31.800Z,-2.31
2022-12-19T17:01:01.104Z,-2.33
2022-12-19T17:03:34.572Z,-2.33
2022-12-19T17:06:05.809Z,-2.36
2022-12-19T17:08:35.498Z,-2.33
2022-12-19T17:11:05.129Z,-2.30
2022-12-19T17:13:35.235Z,-2.31
2022-12-19T17:16:06.518Z,-2.33
2022-12-19T17:18:40.135Z,-2.29
2022-12-19T17:21:16.605Z,-2.25
2022-12-19T17:23:47.425Z,-2.17
2022-12-19T17:26:18.123Z,-2.14
2022-12-19T17:28:49.125Z,-2.19
2022-12-19T17:31:24.276Z,-2.23
2022-12-19T17:33:58.638Z,-2.18
2022-12-19T17:36:37.066Z,-2.20
2022-12-19T17:39:21.342Z,-2.14
2022-12-19T17:41:51.528Z,-2.17
2022-12-19T17:44:21.257Z,-2.11
2022-12-19T17:46:50.666Z,-2.10
2022-12-19T17:49:27.404Z,-2.08
2022-12-19T17:51:58.415Z,-2.13
2022-12-19T17:54:30.460Z,-2.15
2022-12-19T17:57:00.120Z,-2.06
2022-12-19T17:59:29.455Z,-2.05
2022-12-19T18:01:59.075Z,-2.08
2022-12-19T18:04:29.643Z,-1.99
2022-12-19T18:07:01.431Z,-1.97
2022-12-19T18:09:31.223Z,-1.93
2022-12-19T18:12:00.414Z,-1.93
2022-12-19T18:14:29.753Z,-1.95
2022-12-19T18:17:00.481Z,-1.93
2022-12-19T18:19:33.089Z,-1.94
2022-12-19T18:22:05.933Z,-2.01
2022-12-19T18:24:36.672Z,-1.97
2022-12-19T18:27:07.173Z,-1.95
2022-12-19T18:29:39.128Z,-1.95
2022-12-19T18:32:19.016Z,-1.97
2022-12-19T18:34:51.325Z,-1.93
2022-12-19T18:37:25.672Z,-1.94
2022-12-19T18:39:57.313Z,-1.91
2022-12-19T18:42:29.075Z,-1.92
2022-12-19T18:45:02.843Z,-1.91
2022-12-19T18:47:32.457Z,-1.92
2022-12-19T18:50:03.418Z,-1.92
2022-12-19T18:52:35.670Z,-1.90
2022-12-19T18:55:13.606Z,-1.86
2022-12-19T18:57:45.443Z,-1.79
2022-12-19T19:00:19.201Z,-1.89
2022-12-19T19:02:58.622Z,-1.93
2022-12-19T19:05:30.821Z,-1.93
2022-12-19T19:08:14.395Z,-1.84
2022-12-19T19:10:45.713Z,-1.90
2022-12-19T19:13:18.084Z,-1.85
2022-12-19T19:15:51.103Z,-1.81
2022-12-19T19:18:30.262Z,-1.80
2022-12-19T19:21:01.743Z,-1.79
2022-12-19T19:23:38.534Z,-1.81
2022-12-19T19:26:08.518Z,-1.78
2022-12-19T19:28:39.409Z,-1.91
2022-12-19T19:31:12.227Z,-1.88
2022-12-19T19:33:44.812Z,-1.81
2022-12-19T19:36:21.519Z,-1.82
2022-12-19T19:38:55.858Z,-1.74
2022-12-19T19:41:29.854Z,-1.76
2022-12-19T19:44:01.360Z,-1.83
2022-12-19T19:46:32.914Z,-1.79
2022-12-19T19:49:02.643Z,-1.83
2022-12-19T19:51:32.303Z,-1.75
2022-12-19T19:54:03.306Z,-1.70
2022-12-19T19:56:32.887Z,-1.74
2022-12-19T19:59:01.925Z,-1.82
2022-12-19T20:01:31.629Z,-1.77
2022-12-19T20:04:00.963Z,-1.70
2022-12-19T20:06:30.525Z,-1.67
2022-12-19T20:09:01.300Z,-1.67
2022-12-19T20:11:30.775Z,-1.70
2022-12-19T20:13:59.844Z,-1.76
2022-12-19T20:16:29.595Z,-1.71
2022-12-19T20:18:58.748Z,-1.67
2022-12-19T20:21:29.259Z,-1.64
2022-12-19T20:23:58.745Z,-1.61
2022-12-19T20:26:29.567Z,-1.53
2022-12-19T20:28:58.763Z,-1.55
2022-12-19T20:31:28.552Z,-1.53
2022-12-19T20:33:57.834Z,-1.62
2022-12-19T20:36:27.752Z,-1.50
2022-12-19T20:38:56.846Z,-1.47
2022-12-19T20:41:26.271Z,-1.47
2022-12-19T20:43:57.263Z,-1.44
2022-12-19T20:46:26.886Z,-1.43
2022-12-19T20:48:55.928Z,-1.40
2022-12-19T20:51:25.358Z,-1.41
2022-12-19T20:53:55.464Z,-1.38
2022-12-19T20:56:26.067Z,-1.39
2022-12-19T20:58:57.547Z,-1.39
2022-12-19T21:01:27.603Z,-1.33
2022-12-19T21:03:56.975Z,-1.29
2022-12-19T21:06:27.451Z,-1.26
2022-12-19T21:08:57.803Z,-1.25
2022-12-19T21:11:27.551Z,-1.24
2022-12-19T21:13:58.055Z,-1.25
2022-12-19T21:16:27.613Z,-1.22
2022-12-19T21:18:56.643Z,-1.17
2022-12-19T21:21:28.533Z,-1.13
2022-12-19T21:23:58.014Z,-1.11
2022-12-19T21:26:29.621Z,-1.06
2022-12-19T21:29:00.191Z,-1.10
2022-12-19T21:31:31.542Z,-1.06
2022-12-19T21:34:02.479Z,-1.01
2022-12-19T21:36:32.754Z,-0.98
2022-12-19T21:39:03.062Z,-0.92
2022-12-19T21:41:33.508Z,-0.89
2022-12-19T21:44:04.187Z,-0.87
2022-12-19T21:46:34.528Z,-0.83
2022-12-19T21:49:04.305Z,-0.80
2022-12-19T21:51:34.068Z,-0.78
2022-12-19T21:54:07.048Z,-0.75
2022-12-19T21:56:38.935Z,-0.71
2022-12-19T21:59:12.833Z,-0.65
2022-12-19T22:01:42.733Z,-0.64
2022-12-19T22:04:14.880Z,-0.63
2022-12-19T22:06:44.267Z,-0.60
2022-12-19T22:09:16.339Z,-0.56
2022-12-19T22:11:46.701Z,-0.54
2022-12-19T22:14:19.019Z,-0.50
2022-12-19T22:16:48.371Z,-0.47
2022-12-19T22:19:19.834Z,-0.43
2022-12-19T22:21:49.293Z,-0.39
2022-12-19T22:24:20.093Z,-0.35
2022-12-19T22:26:49.374Z,-0.33
2022-12-19T22:29:20.329Z,-0.29
2022-12-19T22:31:49.696Z,-0.27
2022-12-19T22:34:20.861Z,-0.24
2022-12-19T22:36:50.572Z,-0.25
2022-12-19T22:39:22.549Z,-0.22
2022-12-19T22:41:51.609Z,-0.17
2022-12-19T22:44:24.998Z,-0.11
2022-12-19T22:46:54.271Z,-0.09
2022-12-19T22:49:23.684Z,-0.03
2022-12-19T22:51:52.713Z,0.01
2022-12-19T22:54:22.072Z,0.02
2022-12-19T22:56:52.527Z,0.03
2022-12-19T22:59:23.503Z,0.10
2022-12-19T23:01:53.085Z,0.13
2022-12-19T23:04:22.668Z,0.13
2022-12-19T23:06:51.853Z,0.17
2022-12-19T23:09:21.573Z,0.15
2022-12-19T23:11:51.418Z,0.22
2022-12-19T23:14:22.931Z,0.28
2022-12-19T23:16:52.077Z,0.31
2022-12-19T23:19:21.439Z,0.36
2022-12-19T23:21:50.580Z,0.37
2022-12-19T23:24:19.934Z,0.40
2022-12-19T23:26:49.026Z,0.44
2022-12-19T23:29:18.395Z,0.44
2022-12-19T23:31:49.349Z,0.48
2022-12-19T23:34:19.530Z,0.49
2022-12-19T23:39:38.417Z,0.55
2022-12-19T23:42:07.495Z,0.57
2022-12-19T23:44:36.902Z,0.62
2022-12-19T23:47:07.426Z,0.68
2022-12-19T23:49:36.786Z,0.72
2022-12-19T23:52:06.169Z,0.74
2022-12-19T23:54:35.856Z,0.77
2022-12-19T23:57:04.910Z,0.81
2022-12-19T23:59:34.422Z,0.85
